Wise, Virginia
Current Conditions -  °F | °C
As of 6:35 AM on Thursday 27 Nov 2014 (Local Time) from KLNP Reporting Station
Light Snow Light Snow  
Wind Chill: 27°   Ceiling: 500
Heat Index: 32°   Visibility: 2.5mi
Dew Point: 32°   Wind: 5mph
Humidity: 100%   Direction: 330°NNW
Pressure: 30"   Gusts: NA
Location:  36.98°N, 82.58°W
Report Text: KLNP 271135Z AUTO 33004KT 2 1/2SM -SN OVC005 00/00 A3000 RMK AO2 P0001
Loading
Personal Weather Stations






























Interactive Weather Map New forecast layout! Learn more

10-Day Weather Forecast

Advertisements
Track Severe Weather on mobile